aviador You're here:

KELN Decoded Metar

ELLENSBURG in WA, USA
Report Time2018-02-25 14:53:00
UTC Time2018-02-25 15:10:24
Flight Rules vfr VFR
Wind050° at 07 kt
W.Decomp.*RWY 07: 5.7 kt HW 4.1 kt LCW
RWY 11: 1.7 kt HW 6.8 kt LCW
W.Rank050° ranks 13
Current wind is above 050° avg. (4.4)
Visibility9999 m
Phenomena:N/A
Clouds:Broken 090 Hf
Overcast 120 Hf
Expected CloudBase > 1,600 ft AGL from Temp-Dew spread
Ceiling9,000 ft
Temp01°C (ISA -11)
Dew Point-3°C (75% RH)
AAT-3.9°C
QNH1007 hPa
Density Alt692 ft
Elevation1,703 ft
Report Wrong Elevation
Raw Report
KELN 251453Z AUTO 05007KT 10SM BKN090 OVC120 01/M03 A2975 RMK AO2
SLP087 T00061028 56034=

Extra information for KELN:More info

Metar Taf Metar & Taf Last 4 Metars F.Rules Stats Wind Profile Meteogram Temp Stats Airport Information Weather charts Add Link Nearby VenuesMetar ALERT Operation Metar Decoded Social comments

AIRNAV info for KELN